sensor_id;sensor_type;location;lat;lon;timestamp;P1;durP1;ratioP1;P2;durP2;ratioP2
76552;SDS011;65395;53.168;18.156;2023-04-03T00:01:34;7.00;;;1.20;;
76552;SDS011;65395;53.168;18.156;2023-04-03T00:04:01;2.60;;;0.70;;
76552;SDS011;65395;53.168;18.156;2023-04-03T00:06:28;6.50;;;0.80;;
76552;SDS011;65395;53.168;18.156;2023-04-03T00:08:55;5.00;;;0.80;;
76552;SDS011;65395;53.168;18.156;2023-04-03T00:11:21;4.60;;;0.80;;
76552;SDS011;65395;53.168;18.156;2023-04-03T00:13:48;3.50;;;0.80;;
76552;SDS011;65395;53.168;18.156;2023-04-03T00:16:15;4.50;;;0.80;;
76552;SDS011;65395;53.168;18.156;2023-04-03T00:18:42;6.40;;;0.80;;
76552;SDS011;65395;53.168;18.156;2023-04-03T00:21:09;3.30;;;0.60;;
76552;SDS011;65395;53.168;18.156;2023-04-03T00:23:38;6.80;;;0.60;;
76552;SDS011;65395;53.168;18.156;2023-04-03T00:26:05;2.70;;;0.50;;
76552;SDS011;65395;53.168;18.156;2023-04-03T00:28:32;4.10;;;0.80;;
76552;SDS011;65395;53.168;18.156;2023-04-03T00:30:58;6.90;;;1.20;;
76552;SDS011;65395;53.168;18.156;2023-04-03T00:33:25;7.70;;;0.90;;
76552;SDS011;65395;53.168;18.156;2023-04-03T00:35:52;5.80;;;0.80;;
76552;SDS011;65395;53.168;18.156;2023-04-03T00:38:19;4.20;;;1.00;;
76552;SDS011;65395;53.168;18.156;2023-04-03T00:40:47;6.10;;;0.90;;
76552;SDS011;65395;53.168;18.156;2023-04-03T00:43:17;5.20;;;0.90;;
76552;SDS011;65395;53.168;18.156;2023-04-03T00:45:48;4.70;;;0.60;;
76552;SDS011;65395;53.168;18.156;2023-04-03T00:48:19;4.00;;;0.70;;
76552;SDS011;65395;53.168;18.156;2023-04-03T00:50:49;5.80;;;0.70;;
76552;SDS011;65395;53.168;18.156;2023-04-03T00:53:18;9.10;;;0.90;;
76552;SDS011;65395;53.168;18.156;2023-04-03T00:55:49;3.80;;;0.90;;
76552;SDS011;65395;53.168;18.156;2023-04-03T00:58:19;3.30;;;0.80;;
76552;SDS011;65395;53.168;18.156;2023-04-03T01:00:52;8.20;;;1.20;;
76552;SDS011;65395;53.168;18.156;2023-04-03T01:03:24;4.20;;;0.90;;
76552;SDS011;65395;53.168;18.156;2023-04-03T01:05:51;4.60;;;0.70;;
76552;SDS011;65395;53.168;18.156;2023-04-03T01:08:18;3.70;;;0.80;;
76552;SDS011;65395;53.168;18.156;2023-04-03T01:10:45;5.40;;;0.90;;
76552;SDS011;65395;53.168;18.156;2023-04-03T01:15:52;5.20;;;0.80;;
76552;SDS011;65395;53.168;18.156;2023-04-03T01:18:20;3.80;;;0.70;;
76552;SDS011;65395;53.168;18.156;2023-04-03T01:20:58;3.40;;;0.80;;
76552;SDS011;65395;53.168;18.156;2023-04-03T01:23:53;2.70;;;0.60;;
76552;SDS011;65395;53.168;18.156;2023-04-03T01:26:27;6.20;;;0.70;;
76552;SDS011;65395;53.168;18.156;2023-04-03T01:28:54;1.60;;;0.40;;
76552;SDS011;65395;53.168;18.156;2023-04-03T01:31:23;4.10;;;0.70;;
76552;SDS011;65395;53.168;18.156;2023-04-03T01:33:54;3.90;;;0.70;;
76552;SDS011;65395;53.168;18.156;2023-04-03T01:36:23;6.80;;;0.80;;
76552;SDS011;65395;53.168;18.156;2023-04-03T01:38:52;5.20;;;0.80;;
76552;SDS011;65395;53.168;18.156;2023-04-03T01:41:19;3.10;;;0.80;;
76552;SDS011;65395;53.168;18.156;2023-04-03T01:43:48;5.00;;;1.00;;
76552;SDS011;65395;53.168;18.156;2023-04-03T01:46:15;3.50;;;0.60;;
76552;SDS011;65395;53.168;18.156;2023-04-03T01:48:43;4.20;;;0.70;;
76552;SDS011;65395;53.168;18.156;2023-04-03T01:51:10;3.30;;;0.60;;
76552;SDS011;65395;53.168;18.156;2023-04-03T01:53:37;4.90;;;1.20;;
76552;SDS011;65395;53.168;18.156;2023-04-03T01:56:04;3.70;;;0.60;;
76552;SDS011;65395;53.168;18.156;2023-04-03T01:58:31;2.60;;;0.60;;
76552;SDS011;65395;53.168;18.156;2023-04-03T02:00:58;4.30;;;0.80;;
76552;SDS011;65395;53.168;18.156;2023-04-03T02:03:26;5.00;;;0.60;;
76552;SDS011;65395;53.168;18.156;2023-04-03T02:05:53;2.80;;;0.50;;
76552;SDS011;65395;53.168;18.156;2023-04-03T02:08:20;4.50;;;0.70;;
76552;SDS011;65395;53.168;18.156;2023-04-03T02:10:47;5.70;;;1.40;;
76552;SDS011;65395;53.168;18.156;2023-04-03T02:13:16;4.10;;;0.90;;
76552;SDS011;65395;53.168;18.156;2023-04-03T02:15:45;5.10;;;1.10;;
76552;SDS011;65395;53.168;18.156;2023-04-03T02:18:12;3.50;;;0.70;;
76552;SDS011;65395;53.168;18.156;2023-04-03T02:20:39;3.30;;;0.90;;
76552;SDS011;65395;53.168;18.156;2023-04-03T02:23:05;3.80;;;0.60;;
76552;SDS011;65395;53.168;18.156;2023-04-03T02:25:32;2.90;;;0.60;;
76552;SDS011;65395;53.168;18.156;2023-04-03T02:27:59;4.70;;;0.60;;
76552;SDS011;65395;53.168;18.156;2023-04-03T02:30:26;6.20;;;1.10;;
76552;SDS011;65395;53.168;18.156;2023-04-03T02:32:53;4.70;;;0.90;;
76552;SDS011;65395;53.168;18.156;2023-04-03T02:35:20;5.20;;;0.90;;
76552;SDS011;65395;53.168;18.156;2023-04-03T02:37:48;2.10;;;0.80;;
76552;SDS011;65395;53.168;18.156;2023-04-03T02:40:15;4.80;;;1.00;;
76552;SDS011;65395;53.168;18.156;2023-04-03T02:42:42;5.10;;;0.60;;
76552;SDS011;65395;53.168;18.156;2023-04-03T02:45:09;4.60;;;0.70;;
76552;SDS011;65395;53.168;18.156;2023-04-03T02:47:36;5.30;;;0.90;;
76552;SDS011;65395;53.168;18.156;2023-04-03T02:50:03;4.40;;;0.80;;
76552;SDS011;65395;53.168;18.156;2023-04-03T02:52:31;4.50;;;0.90;;
76552;SDS011;65395;53.168;18.156;2023-04-03T02:54:58;4.10;;;0.70;;
76552;SDS011;65395;53.168;18.156;2023-04-03T02:57:25;7.80;;;1.10;;
76552;SDS011;65395;53.168;18.156;2023-04-03T02:59:52;5.70;;;1.10;;
76552;SDS011;65395;53.168;18.156;2023-04-03T03:02:19;5.30;;;1.10;;
76552;SDS011;65395;53.168;18.156;2023-04-03T03:04:46;7.10;;;1.20;;
76552;SDS011;65395;53.168;18.156;2023-04-03T03:07:12;3.00;;;0.90;;
76552;SDS011;65395;53.168;18.156;2023-04-03T03:09:39;7.50;;;1.40;;
76552;SDS011;65395;53.168;18.156;2023-04-03T03:12:06;3.80;;;0.70;;
76552;SDS011;65395;53.168;18.156;2023-04-03T03:14:33;7.30;;;1.20;;
76552;SDS011;65395;53.168;18.156;2023-04-03T03:16:59;6.60;;;0.90;;
76552;SDS011;65395;53.168;18.156;2023-04-03T03:19:26;5.80;;;0.80;;
76552;SDS011;65395;53.168;18.156;2023-04-03T03:21:53;6.40;;;0.90;;
76552;SDS011;65395;53.168;18.156;2023-04-03T03:24:19;5.30;;;0.90;;
76552;SDS011;65395;53.168;18.156;2023-04-03T03:26:47;4.00;;;0.90;;
76552;SDS011;65395;53.168;18.156;2023-04-03T03:29:15;5.70;;;0.80;;
76552;SDS011;65395;53.168;18.156;2023-04-03T03:31:42;3.90;;;0.90;;
76552;SDS011;65395;53.168;18.156;2023-04-03T03:34:08;4.90;;;0.90;;
76552;SDS011;65395;53.168;18.156;2023-04-03T03:36:35;4.80;;;1.10;;
76552;SDS011;65395;53.168;18.156;2023-04-03T03:39:02;2.50;;;0.80;;
76552;SDS011;65395;53.168;18.156;2023-04-03T03:41:29;6.70;;;1.00;;
76552;SDS011;65395;53.168;18.156;2023-04-03T03:43:56;4.60;;;0.80;;
76552;SDS011;65395;53.168;18.156;2023-04-03T03:46:23;4.50;;;1.10;;
76552;SDS011;65395;53.168;18.156;2023-04-03T03:48:50;4.60;;;0.80;;
76552;SDS011;65395;53.168;18.156;2023-04-03T03:51:17;3.50;;;0.90;;
76552;SDS011;65395;53.168;18.156;2023-04-03T03:53:44;7.50;;;0.90;;
76552;SDS011;65395;53.168;18.156;2023-04-03T03:56:13;5.20;;;1.10;;
76552;SDS011;65395;53.168;18.156;2023-04-03T03:58:41;2.90;;;1.00;;
76552;SDS011;65395;53.168;18.156;2023-04-03T04:01:08;2.50;;;0.90;;
76552;SDS011;65395;53.168;18.156;2023-04-03T04:03:39;1.30;;;0.50;;
76552;SDS011;65395;53.168;18.156;2023-04-03T04:06:07;6.80;;;1.30;;
76552;SDS011;65395;53.168;18.156;2023-04-03T04:08:34;4.10;;;0.90;;
76552;SDS011;65395;53.168;18.156;2023-04-03T04:11:01;5.10;;;0.80;;
76552;SDS011;65395;53.168;18.156;2023-04-03T04:13:28;6.50;;;1.50;;
76552;SDS011;65395;53.168;18.156;2023-04-03T04:15:55;4.90;;;0.80;;
76552;SDS011;65395;53.168;18.156;2023-04-03T04:18:21;4.50;;;0.80;;
76552;SDS011;65395;53.168;18.156;2023-04-03T04:20:49;6.80;;;1.20;;
76552;SDS011;65395;53.168;18.156;2023-04-03T04:23:17;4.60;;;0.90;;
76552;SDS011;65395;53.168;18.156;2023-04-03T04:25:45;4.90;;;0.70;;
76552;SDS011;65395;53.168;18.156;2023-04-03T04:28:13;4.70;;;0.90;;
76552;SDS011;65395;53.168;18.156;2023-04-03T04:30:41;6.70;;;0.80;;
76552;SDS011;65395;53.168;18.156;2023-04-03T04:33:08;2.30;;;0.60;;
76552;SDS011;65395;53.168;18.156;2023-04-03T04:35:36;2.90;;;0.70;;
76552;SDS011;65395;53.168;18.156;2023-04-03T04:38:03;11.10;;;1.40;;
76552;SDS011;65395;53.168;18.156;2023-04-03T04:40:31;5.40;;;0.80;;
76552;SDS011;65395;53.168;18.156;2023-04-03T04:42:58;2.70;;;0.80;;
76552;SDS011;65395;53.168;18.156;2023-04-03T04:45:25;3.00;;;0.90;;
76552;SDS011;65395;53.168;18.156;2023-04-03T04:47:54;4.20;;;1.10;;
76552;SDS011;65395;53.168;18.156;2023-04-03T04:50:23;3.00;;;1.00;;
76552;SDS011;65395;53.168;18.156;2023-04-03T04:52:51;3.00;;;0.90;;
76552;SDS011;65395;53.168;18.156;2023-04-03T04:55:17;4.70;;;1.20;;
76552;SDS011;65395;53.168;18.156;2023-04-03T04:57:44;9.60;;;1.20;;
76552;SDS011;65395;53.168;18.156;2023-04-03T05:00:12;3.40;;;1.20;;
76552;SDS011;65395;53.168;18.156;2023-04-03T05:02:39;5.70;;;2.10;;
76552;SDS011;65395;53.168;18.156;2023-04-03T05:05:06;4.10;;;1.00;;
76552;SDS011;65395;53.168;18.156;2023-04-03T05:07:34;3.80;;;0.90;;
76552;SDS011;65395;53.168;18.156;2023-04-03T05:10:02;4.60;;;1.00;;
76552;SDS011;65395;53.168;18.156;2023-04-03T05:12:29;5.70;;;1.20;;
76552;SDS011;65395;53.168;18.156;2023-04-03T05:14:59;6.80;;;1.50;;
76552;SDS011;65395;53.168;18.156;2023-04-03T05:17:26;5.20;;;1.60;;
76552;SDS011;65395;53.168;18.156;2023-04-03T05:19:55;5.60;;;1.70;;
76552;SDS011;65395;53.168;18.156;2023-04-03T05:22:22;3.90;;;1.50;;
76552;SDS011;65395;53.168;18.156;2023-04-03T05:24:49;4.60;;;1.50;;
76552;SDS011;65395;53.168;18.156;2023-04-03T05:27:16;6.10;;;1.60;;
76552;SDS011;65395;53.168;18.156;2023-04-03T05:29:45;6.80;;;1.50;;
76552;SDS011;65395;53.168;18.156;2023-04-03T05:32:14;6.60;;;2.00;;
76552;SDS011;65395;53.168;18.156;2023-04-03T05:34:41;5.50;;;1.80;;
76552;SDS011;65395;53.168;18.156;2023-04-03T05:37:09;7.50;;;2.00;;
76552;SDS011;65395;53.168;18.156;2023-04-03T05:39:36;4.00;;;1.60;;
76552;SDS011;65395;53.168;18.156;2023-04-03T05:42:05;5.20;;;1.40;;
76552;SDS011;65395;53.168;18.156;2023-04-03T05:44:32;7.10;;;1.20;;
76552;SDS011;65395;53.168;18.156;2023-04-03T05:46:59;5.60;;;1.50;;
76552;SDS011;65395;53.168;18.156;2023-04-03T05:49:26;5.10;;;1.10;;
76552;SDS011;65395;53.168;18.156;2023-04-03T05:51:53;7.10;;;1.70;;
76552;SDS011;65395;53.168;18.156;2023-04-03T05:54:24;3.30;;;1.00;;
76552;SDS011;65395;53.168;18.156;2023-04-03T05:56:56;4.30;;;1.00;;
76552;SDS011;65395;53.168;18.156;2023-04-03T05:59:23;7.00;;;1.40;;
76552;SDS011;65395;53.168;18.156;2023-04-03T06:01:51;3.30;;;1.20;;
76552;SDS011;65395;53.168;18.156;2023-04-03T06:04:18;5.10;;;1.40;;
76552;SDS011;65395;53.168;18.156;2023-04-03T06:06:49;6.30;;;1.60;;
76552;SDS011;65395;53.168;18.156;2023-04-03T06:09:19;3.90;;;1.10;;
76552;SDS011;65395;53.168;18.156;2023-04-03T06:11:47;7.70;;;1.10;;
76552;SDS011;65395;53.168;18.156;2023-04-03T06:14:15;5.20;;;1.30;;
76552;SDS011;65395;53.168;18.156;2023-04-03T06:16:42;6.50;;;1.00;;
76552;SDS011;65395;53.168;18.156;2023-04-03T06:19:10;3.70;;;1.10;;
76552;SDS011;65395;53.168;18.156;2023-04-03T06:21:40;6.20;;;1.10;;
76552;SDS011;65395;53.168;18.156;2023-04-03T06:24:07;4.00;;;1.20;;
76552;SDS011;65395;53.168;18.156;2023-04-03T06:26:34;4.40;;;1.10;;
76552;SDS011;65395;53.168;18.156;2023-04-03T06:29:01;5.20;;;1.40;;
76552;SDS011;65395;53.168;18.156;2023-04-03T06:31:28;3.60;;;1.20;;
76552;SDS011;65395;53.168;18.156;2023-04-03T06:33:55;4.90;;;0.90;;
76552;SDS011;65395;53.168;18.156;2023-04-03T06:36:22;3.70;;;0.90;;
76552;SDS011;65395;53.168;18.156;2023-04-03T06:38:49;3.60;;;1.30;;
76552;SDS011;65395;53.168;18.156;2023-04-03T06:41:16;3.10;;;1.10;;
76552;SDS011;65395;53.168;18.156;2023-04-03T06:43:44;3.10;;;1.50;;
76552;SDS011;65395;53.168;18.156;2023-04-03T06:46:13;4.20;;;1.10;;
76552;SDS011;65395;53.168;18.156;2023-04-03T06:48:42;4.30;;;1.20;;
76552;SDS011;65395;53.168;18.156;2023-04-03T06:51:37;5.60;;;1.20;;
76552;SDS011;65395;53.168;18.156;2023-04-03T06:53:57;8.10;;;1.40;;
76552;SDS011;65395;53.168;18.156;2023-04-03T06:56:26;4.50;;;1.10;;
76552;SDS011;65395;53.168;18.156;2023-04-03T06:58:54;3.40;;;1.20;;
76552;SDS011;65395;53.168;18.156;2023-04-03T07:01:24;3.90;;;1.50;;
76552;SDS011;65395;53.168;18.156;2023-04-03T07:03:53;5.20;;;1.30;;
76552;SDS011;65395;53.168;18.156;2023-04-03T07:06:21;4.70;;;1.20;;
76552;SDS011;65395;53.168;18.156;2023-04-03T07:08:48;2.60;;;1.00;;
76552;SDS011;65395;53.168;18.156;2023-04-03T07:11:15;4.20;;;0.90;;
76552;SDS011;65395;53.168;18.156;2023-04-03T07:13:42;2.50;;;0.90;;
76552;SDS011;65395;53.168;18.156;2023-04-03T07:16:09;4.50;;;1.00;;
76552;SDS011;65395;53.168;18.156;2023-04-03T07:18:37;4.70;;;0.90;;
76552;SDS011;65395;53.168;18.156;2023-04-03T07:21:04;2.40;;;0.50;;
76552;SDS011;65395;53.168;18.156;2023-04-03T07:23:31;2.70;;;0.80;;
76552;SDS011;65395;53.168;18.156;2023-04-03T07:25:58;2.40;;;1.00;;
76552;SDS011;65395;53.168;18.156;2023-04-03T07:28:25;3.60;;;0.90;;
76552;SDS011;65395;53.168;18.156;2023-04-03T07:30:53;3.50;;;0.90;;
76552;SDS011;65395;53.168;18.156;2023-04-03T07:33:26;4.90;;;0.90;;
76552;SDS011;65395;53.168;18.156;2023-04-03T07:35:52;5.20;;;0.90;;
76552;SDS011;65395;53.168;18.156;2023-04-03T07:38:20;3.80;;;0.90;;
76552;SDS011;65395;53.168;18.156;2023-04-03T07:40:47;2.30;;;0.90;;
76552;SDS011;65395;53.168;18.156;2023-04-03T07:43:16;3.60;;;1.20;;
76552;SDS011;65395;53.168;18.156;2023-04-03T07:45:44;2.60;;;0.60;;
76552;SDS011;65395;53.168;18.156;2023-04-03T07:48:11;4.10;;;0.90;;
76552;SDS011;65395;53.168;18.156;2023-04-03T07:50:40;2.50;;;0.60;;
76552;SDS011;65395;53.168;18.156;2023-04-03T07:53:07;2.60;;;0.70;;
76552;SDS011;65395;53.168;18.156;2023-04-03T07:55:34;7.70;;;1.00;;
76552;SDS011;65395;53.168;18.156;2023-04-03T07:58:10;3.80;;;0.80;;
76552;SDS011;65395;53.168;18.156;2023-04-03T08:00:38;1.80;;;0.60;;
76552;SDS011;65395;53.168;18.156;2023-04-03T08:03:05;4.60;;;0.70;;
76552;SDS011;65395;53.168;18.156;2023-04-03T08:05:37;2.30;;;1.00;;
76552;SDS011;65395;53.168;18.156;2023-04-03T08:08:05;2.80;;;0.70;;
76552;SDS011;65395;53.168;18.156;2023-04-03T08:10:34;1.90;;;0.60;;
76552;SDS011;65395;53.168;18.156;2023-04-03T08:13:02;8.00;;;1.00;;
76552;SDS011;65395;53.168;18.156;2023-04-03T08:15:29;4.00;;;1.00;;
76552;SDS011;65395;53.168;18.156;2023-04-03T08:17:57;6.50;;;1.00;;
76552;SDS011;65395;53.168;18.156;2023-04-03T08:20:25;1.70;;;0.70;;
76552;SDS011;65395;53.168;18.156;2023-04-03T08:22:52;2.60;;;0.70;;
76552;SDS011;65395;53.168;18.156;2023-04-03T08:25:20;2.00;;;0.70;;
76552;SDS011;65395;53.168;18.156;2023-04-03T08:27:47;1.30;;;0.60;;
76552;SDS011;65395;53.168;18.156;2023-04-03T08:30:14;1.70;;;0.70;;
76552;SDS011;65395;53.168;18.156;2023-04-03T08:32:41;3.20;;;0.70;;
76552;SDS011;65395;53.168;18.156;2023-04-03T08:35:09;2.20;;;0.60;;
76552;SDS011;65395;53.168;18.156;2023-04-03T08:37:37;2.90;;;0.80;;
76552;SDS011;65395;53.168;18.156;2023-04-03T08:40:06;7.80;;;1.10;;
76552;SDS011;65395;53.168;18.156;2023-04-03T08:42:50;4.30;;;0.80;;
76552;SDS011;65395;53.168;18.156;2023-04-03T08:45:47;5.10;;;1.10;;
76552;SDS011;65395;53.168;18.156;2023-04-03T08:50:59;1.50;;;0.60;;
76552;SDS011;65395;53.168;18.156;2023-04-03T08:53:32;6.90;;;0.80;;
76552;SDS011;65395;53.168;18.156;2023-04-03T08:56:02;3.80;;;0.80;;
76552;SDS011;65395;53.168;18.156;2023-04-03T08:58:40;2.30;;;0.70;;
76552;SDS011;65395;53.168;18.156;2023-04-03T09:01:16;2.40;;;0.60;;
76552;SDS011;65395;53.168;18.156;2023-04-03T09:03:47;3.40;;;1.00;;
76552;SDS011;65395;53.168;18.156;2023-04-03T09:06:22;3.00;;;0.80;;
76552;SDS011;65395;53.168;18.156;2023-04-03T09:11:52;1.90;;;0.90;;
76552;SDS011;65395;53.168;18.156;2023-04-03T09:14:46;2.30;;;1.00;;
76552;SDS011;65395;53.168;18.156;2023-04-03T09:20:17;4.00;;;1.20;;
76552;SDS011;65395;53.168;18.156;2023-04-03T09:22:56;7.40;;;2.50;;
76552;SDS011;65395;53.168;18.156;2023-04-03T09:25:25;3.70;;;1.20;;
76552;SDS011;65395;53.168;18.156;2023-04-03T09:27:59;5.60;;;1.20;;
76552;SDS011;65395;53.168;18.156;2023-04-03T09:30:28;1.80;;;0.90;;
76552;SDS011;65395;53.168;18.156;2023-04-03T09:32:55;6.80;;;2.40;;
76552;SDS011;65395;53.168;18.156;2023-04-03T09:35:25;2.90;;;1.00;;
76552;SDS011;65395;53.168;18.156;2023-04-03T09:38:01;2.50;;;0.80;;
76552;SDS011;65395;53.168;18.156;2023-04-03T09:40:45;3.70;;;0.80;;
76552;SDS011;65395;53.168;18.156;2023-04-03T09:43:22;2.30;;;0.90;;
76552;SDS011;65395;53.168;18.156;2023-04-03T09:45:55;4.80;;;1.00;;
76552;SDS011;65395;53.168;18.156;2023-04-03T09:48:24;2.10;;;0.80;;
76552;SDS011;65395;53.168;18.156;2023-04-03T09:50:53;2.30;;;0.70;;
76552;SDS011;65395;53.168;18.156;2023-04-03T09:53:33;3.40;;;0.70;;
76552;SDS011;65395;53.168;18.156;2023-04-03T09:56:09;3.60;;;1.10;;
76552;SDS011;65395;53.168;18.156;2023-04-03T09:59:05;2.60;;;0.90;;
76552;SDS011;65395;53.168;18.156;2023-04-03T10:01:38;9.70;;;1.30;;
76552;SDS011;65395;53.168;18.156;2023-04-03T10:04:09;6.30;;;0.90;;
76552;SDS011;65395;53.168;18.156;2023-04-03T10:06:39;2.40;;;0.80;;
76552;SDS011;65395;53.168;18.156;2023-04-03T10:11:58;3.00;;;0.80;;
76552;SDS011;65395;53.168;18.156;2023-04-03T10:14:32;3.30;;;1.00;;
76552;SDS011;65395;53.168;18.156;2023-04-03T10:19:45;1.40;;;0.60;;
76552;SDS011;65395;53.168;18.156;2023-04-03T10:22:21;4.50;;;0.80;;
76552;SDS011;65395;53.168;18.156;2023-04-03T10:25:07;3.30;;;0.60;;
76552;SDS011;65395;53.168;18.156;2023-04-03T10:27:49;2.40;;;0.60;;
76552;SDS011;65395;53.168;18.156;2023-04-03T10:30:36;4.60;;;0.90;;
76552;SDS011;65395;53.168;18.156;2023-04-03T10:36:17;2.40;;;0.70;;
76552;SDS011;65395;53.168;18.156;2023-04-03T10:39:16;2.90;;;0.80;;
76552;SDS011;65395;53.168;18.156;2023-04-03T10:41:56;4.90;;;1.00;;
76552;SDS011;65395;53.168;18.156;2023-04-03T10:47:39;16.20;;;1.00;;
76552;SDS011;65395;53.168;18.156;2023-04-03T10:53:11;2.10;;;0.60;;
76552;SDS011;65395;53.168;18.156;2023-04-03T10:56:02;11.70;;;1.20;;
76552;SDS011;65395;53.168;18.156;2023-04-03T10:58:39;1.40;;;0.80;;
76552;SDS011;65395;53.168;18.156;2023-04-03T11:01:13;5.70;;;1.00;;
76552;SDS011;65395;53.168;18.156;2023-04-03T11:03:47;1.90;;;0.70;;
76552;SDS011;65395;53.168;18.156;2023-04-03T11:06:19;3.30;;;0.60;;
76552;SDS011;65395;53.168;18.156;2023-04-03T11:08:50;5.70;;;0.70;;
76552;SDS011;65395;53.168;18.156;2023-04-03T11:11:25;2.60;;;0.70;;
76552;SDS011;65395;53.168;18.156;2023-04-03T11:16:55;2.40;;;1.00;;
76552;SDS011;65395;53.168;18.156;2023-04-03T11:19:38;2.60;;;0.60;;
76552;SDS011;65395;53.168;18.156;2023-04-03T11:22:26;2.00;;;0.70;;
76552;SDS011;65395;53.168;18.156;2023-04-03T11:25:04;2.60;;;0.60;;
76552;SDS011;65395;53.168;18.156;2023-04-03T11:27:59;3.80;;;0.70;;
76552;SDS011;65395;53.168;18.156;2023-04-03T11:30:30;2.00;;;0.80;;
76552;SDS011;65395;53.168;18.156;2023-04-03T11:33:11;3.70;;;0.80;;
76552;SDS011;65395;53.168;18.156;2023-04-03T11:36:03;2.50;;;0.90;;
76552;SDS011;65395;53.168;18.156;2023-04-03T11:38:37;4.00;;;0.80;;
76552;SDS011;65395;53.168;18.156;2023-04-03T11:41:08;2.00;;;0.60;;
76552;SDS011;65395;53.168;18.156;2023-04-03T11:43:41;4.30;;;0.90;;
76552;SDS011;65395;53.168;18.156;2023-04-03T11:46:19;3.50;;;0.80;;
76552;SDS011;65395;53.168;18.156;2023-04-03T11:48:47;1.70;;;0.60;;
76552;SDS011;65395;53.168;18.156;2023-04-03T11:56:48;12.30;;;1.00;;
76552;SDS011;65395;53.168;18.156;2023-04-03T11:59:16;2.60;;;0.90;;
76552;SDS011;65395;53.168;18.156;2023-04-03T12:01:50;4.30;;;0.50;;
76552;SDS011;65395;53.168;18.156;2023-04-03T12:04:19;2.30;;;0.80;;
76552;SDS011;65395;53.168;18.156;2023-04-03T12:06:49;6.60;;;1.30;;
76552;SDS011;65395;53.168;18.156;2023-04-03T12:09:23;10.20;;;0.90;;
76552;SDS011;65395;53.168;18.156;2023-04-03T12:14:53;1.40;;;0.60;;
76552;SDS011;65395;53.168;18.156;2023-04-03T12:17:22;3.40;;;0.70;;
76552;SDS011;65395;53.168;18.156;2023-04-03T12:19:53;3.40;;;0.50;;
76552;SDS011;65395;53.168;18.156;2023-04-03T12:22:20;2.80;;;0.70;;
76552;SDS011;65395;53.168;18.156;2023-04-03T12:24:49;10.50;;;5.40;;
76552;SDS011;65395;53.168;18.156;2023-04-03T12:27:27;4.30;;;2.30;;
76552;SDS011;65395;53.168;18.156;2023-04-03T12:30:01;2.30;;;0.80;;
76552;SDS011;65395;53.168;18.156;2023-04-03T12:32:46;4.00;;;0.80;;
76552;SDS011;65395;53.168;18.156;2023-04-03T12:35:23;2.70;;;0.70;;
76552;SDS011;65395;53.168;18.156;2023-04-03T12:40:53;3.80;;;0.80;;
76552;SDS011;65395;53.168;18.156;2023-04-03T12:43:35;4.00;;;0.80;;
76552;SDS011;65395;53.168;18.156;2023-04-03T12:46:21;3.70;;;0.80;;
76552;SDS011;65395;53.168;18.156;2023-04-03T12:48:51;3.10;;;0.70;;
76552;SDS011;65395;53.168;18.156;2023-04-03T12:51:22;11.60;;;1.10;;
76552;SDS011;65395;53.168;18.156;2023-04-03T12:54:01;8.30;;;0.70;;
76552;SDS011;65395;53.168;18.156;2023-04-03T12:56:39;5.10;;;1.30;;
76552;SDS011;65395;53.168;18.156;2023-04-03T12:59:15;5.10;;;1.30;;
76552;SDS011;65395;53.168;18.156;2023-04-03T13:01:52;3.00;;;0.60;;
76552;SDS011;65395;53.168;18.156;2023-04-03T13:04:21;7.70;;;2.40;;
76552;SDS011;65395;53.168;18.156;2023-04-03T13:06:49;11.10;;;1.00;;
76552;SDS011;65395;53.168;18.156;2023-04-03T13:09:19;2.40;;;0.80;;
76552;SDS011;65395;53.168;18.156;2023-04-03T13:11:48;3.50;;;0.60;;
76552;SDS011;65395;53.168;18.156;2023-04-03T13:14:19;3.80;;;0.70;;
76552;SDS011;65395;53.168;18.156;2023-04-03T13:19:27;3.40;;;0.80;;
76552;SDS011;65395;53.168;18.156;2023-04-03T13:21:59;2.00;;;0.80;;
76552;SDS011;65395;53.168;18.156;2023-04-03T13:24:29;2.20;;;0.60;;
76552;SDS011;65395;53.168;18.156;2023-04-03T13:26:59;2.50;;;0.60;;
76552;SDS011;65395;53.168;18.156;2023-04-03T13:29:30;6.60;;;0.80;;
76552;SDS011;65395;53.168;18.156;2023-04-03T13:32:00;12.10;;;1.40;;
76552;SDS011;65395;53.168;18.156;2023-04-03T13:34:29;4.00;;;0.80;;
76552;SDS011;65395;53.168;18.156;2023-04-03T13:37:07;5.80;;;1.00;;
76552;SDS011;65395;53.168;18.156;2023-04-03T13:39:56;4.70;;;0.80;;
76552;SDS011;65395;53.168;18.156;2023-04-03T13:42:31;3.70;;;0.70;;
76552;SDS011;65395;53.168;18.156;2023-04-03T13:47:47;3.90;;;0.70;;
76552;SDS011;65395;53.168;18.156;2023-04-03T13:50:17;2.00;;;0.70;;
76552;SDS011;65395;53.168;18.156;2023-04-03T13:52:52;2.40;;;0.90;;
76552;SDS011;65395;53.168;18.156;2023-04-03T13:55:28;1.90;;;0.90;;
76552;SDS011;65395;53.168;18.156;2023-04-03T13:57:58;5.30;;;0.90;;
76552;SDS011;65395;53.168;18.156;2023-04-03T14:03:25;5.50;;;1.30;;
76552;SDS011;65395;53.168;18.156;2023-04-03T14:05:56;4.40;;;1.50;;
76552;SDS011;65395;53.168;18.156;2023-04-03T14:08:24;10.30;;;2.60;;
76552;SDS011;65395;53.168;18.156;2023-04-03T14:10:51;5.10;;;1.10;;
76552;SDS011;65395;53.168;18.156;2023-04-03T14:13:18;3.70;;;1.20;;
76552;SDS011;65395;53.168;18.156;2023-04-03T14:15:47;3.10;;;1.00;;
76552;SDS011;65395;53.168;18.156;2023-04-03T14:18:16;6.90;;;1.50;;
76552;SDS011;65395;53.168;18.156;2023-04-03T14:20:45;13.40;;;5.30;;
76552;SDS011;65395;53.168;18.156;2023-04-03T14:23:13;13.00;;;5.20;;
76552;SDS011;65395;53.168;18.156;2023-04-03T14:25:41;20.20;;;9.60;;
76552;SDS011;65395;53.168;18.156;2023-04-03T14:28:15;15.70;;;7.30;;
76552;SDS011;65395;53.168;18.156;2023-04-03T14:30:47;10.30;;;3.90;;
76552;SDS011;65395;53.168;18.156;2023-04-03T14:33:18;7.90;;;3.60;;
76552;SDS011;65395;53.168;18.156;2023-04-03T14:35:47;5.00;;;2.10;;
76552;SDS011;65395;53.168;18.156;2023-04-03T14:38:20;6.00;;;2.40;;
76552;SDS011;65395;53.168;18.156;2023-04-03T14:40:50;5.80;;;2.10;;
76552;SDS011;65395;53.168;18.156;2023-04-03T14:43:17;7.00;;;1.30;;
76552;SDS011;65395;53.168;18.156;2023-04-03T14:45:44;6.70;;;1.20;;
76552;SDS011;65395;53.168;18.156;2023-04-03T14:48:15;2.40;;;1.40;;
76552;SDS011;65395;53.168;18.156;2023-04-03T14:50:46;8.30;;;1.60;;
76552;SDS011;65395;53.168;18.156;2023-04-03T14:53:13;6.70;;;1.30;;
76552;SDS011;65395;53.168;18.156;2023-04-03T14:55:43;3.10;;;1.00;;
76552;SDS011;65395;53.168;18.156;2023-04-03T14:58:12;3.20;;;1.00;;
76552;SDS011;65395;53.168;18.156;2023-04-03T15:00:42;4.70;;;1.60;;
76552;SDS011;65395;53.168;18.156;2023-04-03T15:03:12;6.80;;;1.50;;
76552;SDS011;65395;53.168;18.156;2023-04-03T15:05:41;4.80;;;1.40;;
76552;SDS011;65395;53.168;18.156;2023-04-03T15:10:51;9.00;;;3.00;;
76552;SDS011;65395;53.168;18.156;2023-04-03T15:13:19;6.40;;;2.90;;
76552;SDS011;65395;53.168;18.156;2023-04-03T15:15:46;5.70;;;2.40;;
76552;SDS011;65395;53.168;18.156;2023-04-03T15:18:15;9.80;;;2.60;;
76552;SDS011;65395;53.168;18.156;2023-04-03T15:20:45;3.40;;;1.10;;
76552;SDS011;65395;53.168;18.156;2023-04-03T15:23:13;4.00;;;1.00;;
76552;SDS011;65395;53.168;18.156;2023-04-03T15:25:42;2.20;;;1.00;;
76552;SDS011;65395;53.168;18.156;2023-04-03T15:28:17;3.90;;;1.30;;
76552;SDS011;65395;53.168;18.156;2023-04-03T15:30:57;5.50;;;2.00;;
76552;SDS011;65395;53.168;18.156;2023-04-03T15:33:24;2.50;;;1.20;;
76552;SDS011;65395;53.168;18.156;2023-04-03T15:35:51;10.30;;;1.90;;
76552;SDS011;65395;53.168;18.156;2023-04-03T15:38:18;6.90;;;1.80;;
76552;SDS011;65395;53.168;18.156;2023-04-03T15:40:45;8.30;;;2.30;;
76552;SDS011;65395;53.168;18.156;2023-04-03T15:43:13;7.00;;;1.50;;